createdAt,value
2017-11-19T00:01:10.742Z,14.40
2017-11-19T00:03:39.235Z,14.40
2017-11-19T00:06:08.739Z,14.40
2017-11-19T00:08:38.139Z,14.40
2017-11-19T00:11:06.615Z,14.40
2017-11-19T00:13:35.814Z,14.50
2017-11-19T00:16:04.700Z,14.40
2017-11-19T00:18:33.595Z,14.40
2017-11-19T00:21:02.491Z,14.50
2017-11-19T00:23:31.376Z,14.40
2017-11-19T00:26:01.293Z,14.40
2017-11-19T00:28:30.411Z,14.40
2017-11-19T00:30:59.689Z,14.40
2017-11-19T00:33:28.578Z,14.40
2017-11-19T00:35:58.350Z,14.40
2017-11-19T00:38:27.391Z,14.40
2017-11-19T00:40:56.277Z,14.30
2017-11-19T00:43:31.890Z,14.30
2017-11-19T00:46:00.613Z,14.20
2017-11-19T00:48:29.503Z,14.20
2017-11-19T00:50:58.394Z,14.20
2017-11-19T00:53:27.840Z,14.10
2017-11-19T00:55:56.585Z,14.00
2017-11-19T00:58:25.694Z,14.10
2017-11-19T01:00:54.501Z,14.10
2017-11-19T01:03:24.287Z,14.10
2017-11-19T01:05:53.180Z,14.10
2017-11-19T01:08:22.896Z,14.10
2017-11-19T01:10:51.563Z,14.10
2017-11-19T01:13:20.220Z,14.10
2017-11-19T01:15:48.864Z,14.00
2017-11-19T01:18:17.448Z,14.00
2017-11-19T01:20:46.961Z,14.00
2017-11-19T01:23:16.483Z,14.00
2017-11-19T01:25:45.594Z,14.00
2017-11-19T01:28:14.421Z,14.00
2017-11-19T01:30:43.332Z,14.00
2017-11-19T01:33:12.835Z,14.00
2017-11-19T01:35:41.584Z,14.00
2017-11-19T01:38:10.206Z,14.00
2017-11-19T01:40:39.609Z,14.00
2017-11-19T01:43:08.365Z,14.00
2017-11-19T01:45:37.848Z,13.90
2017-11-19T01:48:06.483Z,13.90
2017-11-19T01:50:35.240Z,14.00
2017-11-19T01:53:03.902Z,13.90
2017-11-19T01:55:32.640Z,13.90
2017-11-19T01:58:01.333Z,13.90
2017-11-19T02:00:30.087Z,13.90
2017-11-19T02:02:59.532Z,14.00
2017-11-19T02:05:28.206Z,14.00
2017-11-19T02:07:56.889Z,14.00
2017-11-19T02:10:25.519Z,14.00
2017-11-19T02:12:54.192Z,14.10
2017-11-19T02:15:22.810Z,14.00
2017-11-19T02:17:51.422Z,14.00
2017-11-19T02:20:20.178Z,14.00
2017-11-19T02:22:48.878Z,14.00
2017-11-19T02:25:17.536Z,14.10
2017-11-19T02:27:46.190Z,14.10
2017-11-19T02:30:14.777Z,14.10
2017-11-19T02:32:43.364Z,14.10
2017-11-19T02:35:11.995Z,14.10
2017-11-19T02:37:40.616Z,14.10
2017-11-19T02:40:09.249Z,14.10
2017-11-19T02:42:37.924Z,14.00
2017-11-19T02:45:07.314Z,14.00
2017-11-19T02:47:36.105Z,14.00
2017-11-19T02:50:05.526Z,14.00
2017-11-19T02:52:34.137Z,13.90
2017-11-19T02:55:02.894Z,13.90
2017-11-19T02:57:31.618Z,14.00
2017-11-19T03:00:00.255Z,14.00
2017-11-19T03:02:28.938Z,14.00
2017-11-19T03:04:57.647Z,14.00
2017-11-19T03:07:26.255Z,14.00
2017-11-19T03:09:54.889Z,14.00
2017-11-19T03:12:24.319Z,14.00
2017-11-19T03:14:52.972Z,14.00
2017-11-19T03:17:21.638Z,14.00
2017-11-19T03:19:50.305Z,13.90
2017-11-19T03:22:19.111Z,13.90
2017-11-19T03:24:47.706Z,13.80
2017-11-19T03:27:16.363Z,13.80
2017-11-19T03:29:45.034Z,13.90
2017-11-19T03:32:13.657Z,13.80
2017-11-19T03:34:42.303Z,13.80
2017-11-19T03:37:11.003Z,13.80
2017-11-19T03:39:39.638Z,13.80
2017-11-19T03:42:08.360Z,13.80
2017-11-19T03:44:37.045Z,13.80
2017-11-19T03:47:05.772Z,13.70
2017-11-19T03:49:34.416Z,13.70
2017-11-19T03:52:03.035Z,13.80
2017-11-19T03:54:31.681Z,13.80
2017-11-19T03:57:01.099Z,13.80
2017-11-19T03:59:29.754Z,13.70
2017-11-19T04:01:59.246Z,13.70
2017-11-19T04:04:28.041Z,13.70
2017-11-19T04:06:57.701Z,13.60
2017-11-19T04:09:27.024Z,13.60
2017-11-19T04:11:55.954Z,13.60
2017-11-19T04:14:24.901Z,13.60
2017-11-19T04:16:53.700Z,13.60
2017-11-19T04:19:22.490Z,13.60
2017-11-19T04:21:51.122Z,13.50
2017-11-19T04:24:19.932Z,13.40
2017-11-19T04:26:48.855Z,13.40
2017-11-19T04:29:17.936Z,13.40
2017-11-19T04:31:47.562Z,13.40
2017-11-19T04:34:16.518Z,13.40
2017-11-19T04:36:45.396Z,13.40
2017-11-19T04:39:15.125Z,13.30
2017-11-19T04:41:44.003Z,13.30
2017-11-19T04:44:12.739Z,13.20
2017-11-19T04:46:41.530Z,13.00
2017-11-19T04:52:03.834Z,13.00
2017-11-19T04:54:32.775Z,12.90
2017-11-19T04:57:01.513Z,12.90
2017-11-19T04:59:30.301Z,13.00
2017-11-19T05:01:59.129Z,13.00
2017-11-19T05:04:28.095Z,13.00
2017-11-19T05:06:56.935Z,13.00
2017-11-19T05:09:25.825Z,12.90
2017-11-19T05:11:54.613Z,12.90
2017-11-19T05:14:23.474Z,12.70
2017-11-19T05:16:52.207Z,12.60
2017-11-19T05:19:20.997Z,12.60
2017-11-19T05:21:49.790Z,12.60
2017-11-19T05:24:18.516Z,12.50
2017-11-19T05:26:47.334Z,12.60
2017-11-19T05:29:16.776Z,12.60
2017-11-19T05:31:45.455Z,12.50
2017-11-19T05:34:14.333Z,12.60
2017-11-19T05:36:43.271Z,12.60
2017-11-19T05:39:12.829Z,12.70
2017-11-19T05:41:42.429Z,12.60
2017-11-19T05:44:11.261Z,12.60
2017-11-19T05:46:40.061Z,12.70
2017-11-19T05:49:08.823Z,12.60
2017-11-19T05:51:37.736Z,12.70
2017-11-19T05:54:06.602Z,12.60
2017-11-19T05:56:36.035Z,12.70
2017-11-19T05:59:04.875Z,12.60
2017-11-19T06:01:33.918Z,12.70
2017-11-19T06:04:02.711Z,12.60
2017-11-19T06:06:31.623Z,12.60
2017-11-19T06:09:01.152Z,12.60
2017-11-19T06:11:30.010Z,12.60
2017-11-19T06:13:58.805Z,12.60
2017-11-19T06:16:27.574Z,12.60
2017-11-19T06:18:56.319Z,12.70
2017-11-19T06:21:25.148Z,12.80
2017-11-19T06:23:53.911Z,12.80
2017-11-19T06:26:22.578Z,12.90
2017-11-19T06:28:51.478Z,12.90
2017-11-19T06:31:20.918Z,12.80
2017-11-19T06:33:49.695Z,12.90
2017-11-19T06:36:18.735Z,12.90
2017-11-19T06:38:47.938Z,12.80
2017-11-19T06:41:16.650Z,12.90
2017-11-19T06:43:45.316Z,12.90
2017-11-19T06:46:14.093Z,12.90
2017-11-19T06:48:42.760Z,12.80
2017-11-19T06:51:11.487Z,12.80
2017-11-19T06:53:40.182Z,12.70
2017-11-19T06:56:08.976Z,12.50
2017-11-19T06:58:37.815Z,12.50
2017-11-19T07:01:07.265Z,12.60
2017-11-19T07:03:35.915Z,12.50
2017-11-19T07:06:05.371Z,12.60
2017-11-19T07:08:34.748Z,12.70
2017-11-19T07:11:03.406Z,12.70
2017-11-19T07:13:32.056Z,12.70
2017-11-19T07:16:00.705Z,12.80
2017-11-19T07:18:29.344Z,12.80
2017-11-19T07:20:58.068Z,12.80
2017-11-19T07:23:27.760Z,12.80
2017-11-19T07:25:57.361Z,12.80
2017-11-19T07:28:26.121Z,12.70
2017-11-19T07:30:54.887Z,12.90
2017-11-19T07:33:23.614Z,13.00
2017-11-19T07:35:52.321Z,13.10
2017-11-19T07:38:21.794Z,13.30
2017-11-19T07:40:50.512Z,13.30
2017-11-19T07:43:19.161Z,13.20
2017-11-19T07:45:47.851Z,13.30
2017-11-19T07:48:16.579Z,13.30
2017-11-19T07:50:45.558Z,13.40
2017-11-19T07:53:14.286Z,13.50
2017-11-19T07:55:42.975Z,13.50
2017-11-19T07:58:11.917Z,13.40
2017-11-19T08:00:40.708Z,13.50
2017-11-19T08:03:09.479Z,13.40
2017-11-19T08:05:38.333Z,13.40
2017-11-19T08:08:06.969Z,13.40
2017-11-19T08:10:35.736Z,14.40
2017-11-19T08:13:04.434Z,14.30
2017-11-19T08:15:33.104Z,13.20
2017-11-19T08:18:02.562Z,13.10
2017-11-19T08:20:31.434Z,13.10
2017-11-19T08:23:00.048Z,13.20
2017-11-19T08:25:28.672Z,13.10
2017-11-19T08:27:57.491Z,13.10
2017-11-19T08:30:26.174Z,13.00
2017-11-19T08:32:54.808Z,13.30
2017-11-19T08:35:23.481Z,13.40
2017-11-19T08:37:52.321Z,13.50
2017-11-19T08:40:20.938Z,13.40
2017-11-19T08:42:53.848Z,13.10
2017-11-19T08:45:22.651Z,13.10
2017-11-19T08:47:51.358Z,13.00
2017-11-19T08:50:20.047Z,13.10
2017-11-19T08:52:48.704Z,13.20
2017-11-19T08:55:17.383Z,13.30
2017-11-19T08:57:46.152Z,13.30
2017-11-19T09:00:14.864Z,13.40
2017-11-19T09:02:43.682Z,13.40
2017-11-19T09:05:12.348Z,13.50
2017-11-19T09:07:41.132Z,13.60
2017-11-19T09:10:09.848Z,13.60
2017-11-19T09:12:38.748Z,13.50
2017-11-19T09:15:07.389Z,13.50
2017-11-19T09:17:36.079Z,13.50
2017-11-19T09:20:04.722Z,13.60
2017-11-19T09:22:33.407Z,13.70
2017-11-19T09:25:02.103Z,13.80
2017-11-19T09:27:30.728Z,13.90
2017-11-19T09:29:59.431Z,13.90
2017-11-19T09:32:28.094Z,13.80
2017-11-19T09:34:57.475Z,13.80
2017-11-19T09:37:26.867Z,13.80
2017-11-19T09:39:55.529Z,13.80
2017-11-19T09:42:24.248Z,13.90
2017-11-19T09:44:52.985Z,14.00
2017-11-19T09:47:21.627Z,14.20
2017-11-19T09:49:50.214Z,14.20
2017-11-19T09:52:19.672Z,14.30
2017-11-19T09:54:48.313Z,14.30
2017-11-19T09:57:17.011Z,14.40
2017-11-19T09:59:45.652Z,14.50
2017-11-19T10:02:14.417Z,14.60
2017-11-19T10:04:43.834Z,14.70
2017-11-19T10:07:12.441Z,14.60
2017-11-19T10:09:41.081Z,14.70
2017-11-19T10:12:09.747Z,14.80
2017-11-19T10:14:38.456Z,14.70
2017-11-19T10:17:07.134Z,14.60
2017-11-19T10:19:35.802Z,14.70
2017-11-19T10:22:04.522Z,14.80
2017-11-19T10:24:33.209Z,14.90
2017-11-19T10:27:01.896Z,14.90
2017-11-19T10:29:30.790Z,14.90
2017-11-19T10:31:59.614Z,15.00
2017-11-19T10:34:28.669Z,15.00
2017-11-19T10:36:57.355Z,15.00
2017-11-19T10:39:26.247Z,14.90
2017-11-19T10:41:55.344Z,15.10
2017-11-19T10:44:24.038Z,15.30
2017-11-19T10:46:52.928Z,15.20
2017-11-19T10:49:21.824Z,15.30
2017-11-19T10:51:50.499Z,15.30
2017-11-19T10:54:19.392Z,15.40
2017-11-19T10:56:48.286Z,15.40
2017-11-19T10:59:16.965Z,15.40
2017-11-19T11:01:46.023Z,15.50
2017-11-19T11:04:14.749Z,15.50
2017-11-19T11:06:43.437Z,15.50
2017-11-19T11:09:12.119Z,15.50
2017-11-19T11:11:40.812Z,15.50
2017-11-19T11:14:09.698Z,15.50
2017-11-19T11:16:38.808Z,15.60
2017-11-19T11:19:07.713Z,15.70
2017-11-19T11:21:37.191Z,15.70
2017-11-19T11:24:06.782Z,15.80
2017-11-19T11:26:44.512Z,16.00
2017-11-19T11:29:14.205Z,16.10
2017-11-19T11:31:43.140Z,16.10
2017-11-19T11:34:11.989Z,16.20
2017-11-19T11:36:40.778Z,16.40
2017-11-19T11:39:09.409Z,16.40
2017-11-19T11:41:38.360Z,16.30
2017-11-19T11:44:07.252Z,16.30
2017-11-19T11:46:36.137Z,16.30
2017-11-19T11:49:04.969Z,16.40
2017-11-19T11:51:33.712Z,16.40
2017-11-19T11:54:02.404Z,16.40
2017-11-19T11:56:31.293Z,16.40
2017-11-19T11:59:00.189Z,16.40
2017-11-19T12:01:29.235Z,16.40
2017-11-19T12:03:58.170Z,16.40
2017-11-19T12:06:27.069Z,16.40
2017-11-19T12:08:56.070Z,16.50
2017-11-19T12:11:25.664Z,16.50
2017-11-19T12:13:54.644Z,16.60
2017-11-19T12:16:24.054Z,16.50
2017-11-19T12:18:54.184Z,16.60
2017-11-19T12:21:23.193Z,16.60
2017-11-19T12:23:52.171Z,16.60
2017-11-19T12:26:21.094Z,16.60
2017-11-19T12:28:50.765Z,16.60
2017-11-19T12:31:19.659Z,16.60
2017-11-19T12:33:48.552Z,16.70
2017-11-19T12:36:17.641Z,16.70
2017-11-19T12:38:46.537Z,16.70
2017-11-19T12:41:15.427Z,16.80
2017-11-19T12:43:44.112Z,16.90
2017-11-19T12:46:13.003Z,16.90
2017-11-19T12:48:42.647Z,16.80
2017-11-19T12:51:11.551Z,16.80
2017-11-19T12:53:40.394Z,16.90
2017-11-19T12:56:10.716Z,16.80
2017-11-19T12:58:40.488Z,16.80
2017-11-19T13:01:09.934Z,16.90
2017-11-19T13:03:38.824Z,16.90
2017-11-19T13:06:08.545Z,16.90
2017-11-19T13:08:37.226Z,16.90
2017-11-19T13:11:06.057Z,16.90
2017-11-19T13:13:34.940Z,16.90
2017-11-19T13:16:04.105Z,17.00
2017-11-19T13:18:32.998Z,17.10
2017-11-19T13:21:01.888Z,17.10
2017-11-19T13:23:31.516Z,17.20
2017-11-19T13:26:00.574Z,17.20
2017-11-19T13:28:29.677Z,17.30
2017-11-19T13:30:58.576Z,17.30
2017-11-19T13:33:28.299Z,17.30
2017-11-19T13:35:57.548Z,17.30
2017-11-19T13:38:26.846Z,17.40
2017-11-19T13:40:55.879Z,17.40
2017-11-19T13:43:24.973Z,17.40
2017-11-19T13:45:53.809Z,17.50
2017-11-19T13:48:22.551Z,17.40
2017-11-19T13:50:51.883Z,17.40
2017-11-19T13:53:20.646Z,17.40
2017-11-19T13:55:49.554Z,17.50
2017-11-19T13:58:18.418Z,17.60
2017-11-19T14:00:47.318Z,17.60
2017-11-19T14:03:17.100Z,17.70
2017-11-19T14:05:45.920Z,17.70
2017-11-19T14:08:14.598Z,17.80
2017-11-19T14:10:43.232Z,17.80
2017-11-19T14:13:11.968Z,17.90
2017-11-19T14:15:40.657Z,17.90
2017-11-19T14:18:09.548Z,18.10
2017-11-19T14:20:38.436Z,18.10
2017-11-19T14:23:07.071Z,18.20
2017-11-19T14:25:36.246Z,18.20
2017-11-19T14:28:05.725Z,18.40
2017-11-19T14:30:34.617Z,18.30
2017-11-19T14:33:03.507Z,18.40
2017-11-19T14:35:32.192Z,18.60
2017-11-19T14:38:01.087Z,18.80
2017-11-19T14:40:29.976Z,20.30
2017-11-19T14:42:59.486Z,22.50
2017-11-19T14:45:28.175Z,22.50
2017-11-19T14:47:56.854Z,22.40
2017-11-19T14:50:25.549Z,22.70
2017-11-19T14:52:54.264Z,22.50
2017-11-19T14:55:23.120Z,21.30
2017-11-19T14:57:52.230Z,20.60
2017-11-19T15:00:21.921Z,20.00
2017-11-19T15:02:50.608Z,19.40
2017-11-19T15:05:19.300Z,19.00
2017-11-19T15:07:47.980Z,18.70
2017-11-19T15:10:16.871Z,18.50
2017-11-19T15:12:45.769Z,18.30
2017-11-19T15:15:14.404Z,17.90
2017-11-19T15:17:43.862Z,17.80
2017-11-19T15:20:12.562Z,17.70
2017-11-19T15:22:41.223Z,17.70
2017-11-19T15:25:10.030Z,17.50
2017-11-19T15:27:38.906Z,17.50
2017-11-19T15:30:07.798Z,17.30
2017-11-19T15:32:36.924Z,17.10
2017-11-19T15:35:05.783Z,17.00
2017-11-19T15:37:34.478Z,16.90
2017-11-19T15:40:03.652Z,16.90
2017-11-19T15:42:32.865Z,16.90
2017-11-19T15:45:02.373Z,16.70
2017-11-19T15:47:32.494Z,16.60
2017-11-19T15:50:01.387Z,16.60
2017-11-19T15:52:31.075Z,16.60
2017-11-19T15:55:00.273Z,16.60
2017-11-19T15:57:29.428Z,16.60
2017-11-19T15:59:59.508Z,16.70
2017-11-19T16:02:29.431Z,16.50
2017-11-19T16:04:58.237Z,16.50
2017-11-19T16:07:27.011Z,16.40
2017-11-19T16:09:55.893Z,16.40
2017-11-19T16:12:25.329Z,16.40
2017-11-19T16:14:54.488Z,16.30
2017-11-19T16:17:23.511Z,16.30
2017-11-19T16:19:52.481Z,16.30
2017-11-19T16:22:22.194Z,16.20
2017-11-19T16:24:51.059Z,16.20
2017-11-19T16:27:19.978Z,16.10
2017-11-19T16:29:49.689Z,16.10
2017-11-19T16:32:19.153Z,16.10
2017-11-19T16:34:47.873Z,16.00
2017-11-19T16:37:16.943Z,16.00
2017-11-19T16:39:52.618Z,16.00
2017-11-19T16:42:21.508Z,16.30
2017-11-19T16:44:50.380Z,15.90
2017-11-19T16:47:19.313Z,15.90
2017-11-19T16:49:48.265Z,15.90
2017-11-19T16:52:17.369Z,15.80
2017-11-19T16:54:46.987Z,15.80
2017-11-19T16:57:16.087Z,15.80
2017-11-19T16:59:45.195Z,15.80
2017-11-19T17:02:15.011Z,15.70
2017-11-19T17:04:43.983Z,15.70
2017-11-19T17:07:12.878Z,15.70
2017-11-19T17:09:42.678Z,15.80
2017-11-19T17:12:12.016Z,15.70
2017-11-19T17:14:41.218Z,15.70
2017-11-19T17:17:11.029Z,15.70
2017-11-19T17:19:39.956Z,15.60
2017-11-19T17:22:08.903Z,15.60
2017-11-19T17:24:37.979Z,15.60
2017-11-19T17:27:06.943Z,15.60
2017-11-19T17:29:36.076Z,15.60
2017-11-19T17:32:05.086Z,15.60
2017-11-19T17:34:34.979Z,15.60
2017-11-19T17:37:05.093Z,15.60
2017-11-19T17:39:34.064Z,15.60
2017-11-19T17:42:03.698Z,15.50
2017-11-19T17:44:33.242Z,15.50
2017-11-19T17:47:02.316Z,15.50
2017-11-19T17:49:31.088Z,15.50
2017-11-19T17:52:00.093Z,15.60
2017-11-19T17:54:28.872Z,15.50
2017-11-19T17:56:58.196Z,15.50
2017-11-19T17:59:27.385Z,15.50
2017-11-19T18:01:56.286Z,15.50
2017-11-19T18:04:25.258Z,15.50
2017-11-19T18:06:54.931Z,15.50
2017-11-19T18:09:24.355Z,15.40
2017-11-19T18:11:53.605Z,15.40
2017-11-19T18:14:22.612Z,15.40
2017-11-19T18:16:51.696Z,15.40
2017-11-19T18:19:21.647Z,15.40
2017-11-19T18:21:51.033Z,15.40
2017-11-19T18:24:20.194Z,15.50
2017-11-19T18:26:50.246Z,15.50
2017-11-19T18:29:20.067Z,15.40
2017-11-19T18:31:49.222Z,15.40
2017-11-19T18:34:19.221Z,15.40
2017-11-19T18:36:48.516Z,15.40
2017-11-19T18:39:18.432Z,15.40
2017-11-19T18:41:47.527Z,15.40
2017-11-19T18:44:17.422Z,15.40
2017-11-19T18:46:46.456Z,15.40
2017-11-19T18:49:15.816Z,15.40
2017-11-19T18:51:44.734Z,15.30
2017-11-19T18:54:14.280Z,15.30
2017-11-19T18:56:43.356Z,15.30
2017-11-19T18:59:12.279Z,15.30
2017-11-19T19:01:41.646Z,15.30
2017-11-19T19:04:10.932Z,15.30
2017-11-19T19:06:40.000Z,15.30
2017-11-19T19:09:09.436Z,15.30
2017-11-19T19:11:38.745Z,15.30
2017-11-19T19:14:08.203Z,15.30
2017-11-19T19:16:36.968Z,15.30
2017-11-19T19:19:06.916Z,15.30
2017-11-19T19:21:35.936Z,15.30
2017-11-19T19:24:04.958Z,15.30
2017-11-19T19:26:34.331Z,15.30
2017-11-19T19:29:03.337Z,15.30
2017-11-19T19:31:32.397Z,15.30
2017-11-19T19:34:01.668Z,15.20
2017-11-19T19:36:31.327Z,15.20
2017-11-19T19:39:00.583Z,15.20
2017-11-19T19:41:29.606Z,15.20
2017-11-19T19:43:58.542Z,15.20
2017-11-19T19:46:27.715Z,15.10
2017-11-19T19:48:56.915Z,15.10
2017-11-19T19:51:25.904Z,15.10
2017-11-19T19:53:54.997Z,15.10
2017-11-19T19:56:23.788Z,15.00
2017-11-19T19:58:52.470Z,15.00
2017-11-19T20:01:21.158Z,15.00
2017-11-19T20:03:50.869Z,15.10
2017-11-19T20:06:20.375Z,15.00
2017-11-19T20:08:49.380Z,15.00
2017-11-19T20:11:19.069Z,15.00
2017-11-19T20:13:48.482Z,14.90
2017-11-19T20:16:17.264Z,14.90
2017-11-19T20:18:46.160Z,14.90
2017-11-19T20:21:15.867Z,15.00
2017-11-19T20:23:44.656Z,15.00
2017-11-19T20:26:14.370Z,14.90
2017-11-19T20:28:43.257Z,14.90
2017-11-19T20:31:12.149Z,14.90
2017-11-19T20:33:41.047Z,14.80
2017-11-19T20:36:09.926Z,14.90
2017-11-19T20:38:39.472Z,14.80
2017-11-19T20:41:08.254Z,14.90
2017-11-19T20:43:37.222Z,14.90
2017-11-19T20:46:06.112Z,14.90
2017-11-19T20:48:34.896Z,14.80
2017-11-19T20:51:03.947Z,14.80
2017-11-19T20:53:33.397Z,14.80
2017-11-19T20:56:02.291Z,14.80
2017-11-19T20:58:30.971Z,14.80
2017-11-19T21:00:59.759Z,14.90
2017-11-19T21:03:28.651Z,14.80
2017-11-19T21:05:57.546Z,14.80
2017-11-19T21:08:26.537Z,14.70
2017-11-19T21:10:55.433Z,14.70
2017-11-19T21:13:24.115Z,14.70
2017-11-19T21:15:52.804Z,14.60
2017-11-19T21:18:21.692Z,14.60
2017-11-19T21:20:50.379Z,14.60
2017-11-19T21:23:19.069Z,14.60
2017-11-19T21:25:47.956Z,14.60
2017-11-19T21:28:18.894Z,14.60
2017-11-19T21:30:45.537Z,14.50
2017-11-19T21:33:14.465Z,14.50
2017-11-19T21:35:44.338Z,14.50
2017-11-19T21:38:13.229Z,14.50
2017-11-19T21:40:41.919Z,14.50
2017-11-19T21:43:10.806Z,14.50
2017-11-19T21:45:39.501Z,14.50
2017-11-19T21:48:08.177Z,14.40
2017-11-19T21:50:37.079Z,14.40
2017-11-19T21:53:05.906Z,14.40
2017-11-19T21:55:34.646Z,14.40
2017-11-19T21:58:03.241Z,14.40
2017-11-19T22:00:32.021Z,14.40
2017-11-19T22:03:04.185Z,14.40
2017-11-19T22:05:33.193Z,14.40
2017-11-19T22:08:02.072Z,14.30
2017-11-19T22:10:31.783Z,14.30
2017-11-19T22:13:00.469Z,14.20
2017-11-19T22:15:29.158Z,14.30
2017-11-19T22:17:58.048Z,14.40
2017-11-19T22:20:26.728Z,14.30
2017-11-19T22:22:55.419Z,14.30
2017-11-19T22:25:24.101Z,14.30
2017-11-19T22:27:52.788Z,14.30
2017-11-19T22:30:21.478Z,14.30
2017-11-19T22:32:50.467Z,14.20
2017-11-19T22:35:19.854Z,14.20
2017-11-19T22:37:48.456Z,14.20
2017-11-19T22:40:17.347Z,14.20
2017-11-19T22:42:45.952Z,14.20
2017-11-19T22:45:15.536Z,14.20
2017-11-19T22:47:44.427Z,14.20
2017-11-19T22:50:13.416Z,14.20
2017-11-19T22:52:42.107Z,14.20
2017-11-19T22:55:10.999Z,14.20
2017-11-19T22:57:39.844Z,14.20
2017-11-19T23:00:09.293Z,14.20
2017-11-19T23:02:38.082Z,14.20
2017-11-19T23:05:06.971Z,14.20
2017-11-19T23:07:35.660Z,14.20
2017-11-19T23:10:04.553Z,14.20
2017-11-19T23:12:33.252Z,14.20
2017-11-19T23:15:01.921Z,14.30
2017-11-19T23:17:30.568Z,14.20
2017-11-19T23:19:59.293Z,14.20
2017-11-19T23:22:27.982Z,14.20
2017-11-19T23:24:56.872Z,14.10
2017-11-19T23:27:25.763Z,14.10
2017-11-19T23:29:55.477Z,14.10
2017-11-19T23:32:24.977Z,14.20
2017-11-19T23:34:53.869Z,14.20
2017-11-19T23:37:22.759Z,14.20
2017-11-19T23:39:51.557Z,14.10
2017-11-19T23:42:28.352Z,14.20
2017-11-19T23:44:57.113Z,14.10
2017-11-19T23:47:25.800Z,14.10
2017-11-19T23:49:54.489Z,14.10
2017-11-19T23:52:23.376Z,14.10
2017-11-19T23:54:52.067Z,14.10
2017-11-19T23:57:22.732Z,14.10
2017-11-19T23:59:52.407Z,14.10
